Terminal Aerodrome Forecast
Issued by NWS Dodge City, KS

Home | Current Version | Previous Version | Graphics & Text | Print | Product List | Glossary Off
Versions: 1 2 3 4 5 6 7 8 9 10 11 12 13 14 15 16 17 18 19 20 21 22 23 24 25 26 27 28 29 30 31 32 33 34 35 36 37 38 39 40 41 42 43 44 45 46 47 48 49

746
FTUS43 KDDC 141120
TAFDDC
TAF
KDDC 141120Z 1412/1512 36005KT P6SM OVC020
     FM141800 04005KT P6SM VCSH OVC025
     FM142100 04005KT P6SM VCSH OVC015
     FM150000 07004KT 1 1/2SM -FZRA OVC008=

USA.gov is the U.S. government's official web portal to all federal, state and local government web resources and services.